createdAt,value
2023-01-26T00:01:35.461Z,55.73
2023-01-26T00:04:02.804Z,42.23
2023-01-26T00:06:30.021Z,41.37
2023-01-26T00:08:57.466Z,55.67
2023-01-26T00:11:26.829Z,53.67
2023-01-26T00:13:55.339Z,58.90
2023-01-26T00:16:23.491Z,48.60
2023-01-26T00:18:50.744Z,48.00
2023-01-26T00:21:22.666Z,47.20
2023-01-26T00:23:50.902Z,43.33
2023-01-26T00:26:21.446Z,49.23
2023-01-26T00:28:49.456Z,47.93
2023-01-26T00:31:19.751Z,42.63
2023-01-26T00:33:47.329Z,51.80
2023-01-26T00:36:14.803Z,61.53
2023-01-26T00:38:42.961Z,53.63
2023-01-26T00:41:30.645Z,51.80
2023-01-26T00:43:58.338Z,55.20
2023-01-26T00:46:25.812Z,47.47
2023-01-26T00:48:54.542Z,46.93
2023-01-26T00:51:22.407Z,56.03
2023-01-26T00:53:49.616Z,52.10
2023-01-26T00:56:17.400Z,55.30
2023-01-26T00:58:45.444Z,54.37
2023-01-26T01:01:13.068Z,48.73
2023-01-26T01:03:42.823Z,45.60
2023-01-26T01:06:10.631Z,40.97
2023-01-26T01:08:37.806Z,38.37
2023-01-26T01:11:11.114Z,37.70
2023-01-26T01:13:38.760Z,52.10
2023-01-26T01:16:11.613Z,46.90
2023-01-26T01:18:39.373Z,48.03
2023-01-26T01:21:13.154Z,45.87
2023-01-26T01:23:41.341Z,44.63
2023-01-26T01:26:08.938Z,38.57
2023-01-26T01:28:37.712Z,51.33
2023-01-26T01:31:06.522Z,44.93
2023-01-26T01:33:34.093Z,45.43
2023-01-26T01:36:04.942Z,50.87
2023-01-26T01:38:32.672Z,53.73
2023-01-26T01:41:00.010Z,52.50
2023-01-26T01:43:28.508Z,56.27
2023-01-26T01:45:56.068Z,44.27
2023-01-26T01:48:29.978Z,50.13
2023-01-26T01:51:05.973Z,46.07
2023-01-26T01:53:38.974Z,46.63
2023-01-26T01:56:12.700Z,56.00
2023-01-26T01:58:43.564Z,55.27
2023-01-26T02:01:11.403Z,54.77
2023-01-26T02:03:42.676Z,54.77
2023-01-26T02:06:47.380Z,51.57
2023-01-26T02:09:35.587Z,56.23
2023-01-26T02:12:06.432Z,54.13
2023-01-26T02:14:34.124Z,61.20
2023-01-26T02:17:02.918Z,63.87
2023-01-26T02:19:45.783Z,48.90
2023-01-26T02:22:24.849Z,69.67
2023-01-26T02:24:59.190Z,58.37
2023-01-26T02:27:27.023Z,56.80
2023-01-26T02:29:56.143Z,50.27
2023-01-26T02:32:23.364Z,53.13
2023-01-26T02:34:58.214Z,65.40
2023-01-26T02:37:25.413Z,47.10
2023-01-26T02:40:02.494Z,62.03
2023-01-26T02:42:38.445Z,54.30
2023-01-26T02:45:07.132Z,59.60
2023-01-26T02:47:34.596Z,61.47
2023-01-26T02:50:05.211Z,61.77
2023-01-26T02:52:33.626Z,53.07
2023-01-26T02:55:22.751Z,49.13
2023-01-26T02:57:52.099Z,45.23
2023-01-26T03:00:22.357Z,46.53
2023-01-26T03:02:53.496Z,58.43
2023-01-26T03:05:20.881Z,50.00
2023-01-26T03:07:48.661Z,58.13
2023-01-26T03:10:18.095Z,64.30
2023-01-26T03:12:45.993Z,51.03
2023-01-26T03:15:31.856Z,53.70
2023-01-26T03:18:26.413Z,43.40
2023-01-26T03:21:13.405Z,44.33
2023-01-26T03:24:07.795Z,45.67
2023-01-26T03:26:56.265Z,43.50
2023-01-26T03:29:23.744Z,42.33
2023-01-26T03:31:53.371Z,41.67
2023-01-26T03:34:21.803Z,47.17
2023-01-26T03:36:49.243Z,45.47
2023-01-26T03:39:36.639Z,39.57
2023-01-26T03:42:23.602Z,45.83
2023-01-26T03:45:09.690Z,60.43
2023-01-26T03:47:57.407Z,52.80
2023-01-26T03:50:43.763Z,38.17
2023-01-26T03:53:34.387Z,36.73
2023-01-26T03:56:20.300Z,36.57
2023-01-26T03:58:56.708Z,37.57
2023-01-26T04:01:27.990Z,47.30
2023-01-26T04:04:16.310Z,39.40
2023-01-26T04:07:07.065Z,49.67
2023-01-26T04:09:37.074Z,52.57
2023-01-26T04:12:04.535Z,44.53
2023-01-26T04:14:51.424Z,38.87
2023-01-26T04:17:42.251Z,34.63
2023-01-26T04:20:28.619Z,36.43
2023-01-26T04:22:56.828Z,37.70
2023-01-26T04:25:24.058Z,48.77
2023-01-26T04:27:51.682Z,42.50
2023-01-26T04:30:19.756Z,39.17
2023-01-26T04:32:47.685Z,34.40
2023-01-26T04:35:15.030Z,33.40
2023-01-26T04:37:43.695Z,36.97
2023-01-26T04:40:11.753Z,39.37
2023-01-26T04:42:39.257Z,37.00
2023-01-26T04:45:07.354Z,37.87
2023-01-26T04:47:35.635Z,37.83
2023-01-26T04:50:04.786Z,47.80
2023-01-26T04:52:32.562Z,38.40
2023-01-26T04:55:00.433Z,43.90
2023-01-26T04:57:28.636Z,46.90
2023-01-26T04:59:55.829Z,40.93
2023-01-26T05:02:23.153Z,37.17
2023-01-26T05:04:50.652Z,41.00
2023-01-26T05:07:17.861Z,31.57
2023-01-26T05:09:46.671Z,41.90
2023-01-26T05:12:42.634Z,46.00
2023-01-26T05:15:25.624Z,45.00
2023-01-26T05:17:59.898Z,35.60
2023-01-26T05:20:47.955Z,39.00
2023-01-26T05:23:17.506Z,39.17
2023-01-26T05:26:04.825Z,38.20
2023-01-26T05:28:39.837Z,40.70
2023-01-26T05:31:07.089Z,42.97
2023-01-26T05:33:34.518Z,51.73
2023-01-26T05:36:07.472Z,51.53
2023-01-26T05:38:35.288Z,44.53
2023-01-26T05:41:02.868Z,34.67
2023-01-26T05:43:36.982Z,40.40
2023-01-26T05:46:23.297Z,39.50
2023-01-26T05:48:50.747Z,42.17
2023-01-26T05:51:19.001Z,43.17
2023-01-26T05:53:46.736Z,46.10
2023-01-26T05:56:14.617Z,36.97
2023-01-26T05:58:47.141Z,36.70
2023-01-26T06:01:14.524Z,42.53
2023-01-26T06:03:50.130Z,38.20
2023-01-26T06:06:17.362Z,36.13
2023-01-26T06:08:51.711Z,41.73
2023-01-26T06:11:34.474Z,35.83
2023-01-26T06:14:08.583Z,38.43
2023-01-26T06:16:35.919Z,34.70
2023-01-26T06:19:03.594Z,41.63
2023-01-26T06:21:33.585Z,34.83
2023-01-26T06:24:00.836Z,40.07
2023-01-26T06:26:29.803Z,31.83
2023-01-26T06:28:58.128Z,42.57
2023-01-26T06:31:29.831Z,38.73
2023-01-26T06:33:59.151Z,39.60
2023-01-26T06:36:28.245Z,40.53
2023-01-26T06:38:57.420Z,38.03
2023-01-26T06:41:25.311Z,41.97
2023-01-26T06:43:52.958Z,32.50
2023-01-26T06:46:20.749Z,42.47
2023-01-26T06:48:49.512Z,37.87
2023-01-26T06:51:16.713Z,38.13
2023-01-26T06:53:58.266Z,37.90
2023-01-26T06:56:33.531Z,32.87
2023-01-26T06:59:21.367Z,29.50
2023-01-26T07:02:17.734Z,43.10
2023-01-26T07:04:46.608Z,35.43
2023-01-26T07:07:14.127Z,31.57
2023-01-26T07:09:41.521Z,37.80
2023-01-26T07:12:09.430Z,34.93
2023-01-26T07:14:36.633Z,39.23
2023-01-26T07:17:29.377Z,37.33
2023-01-26T07:19:56.588Z,36.70
2023-01-26T07:22:23.784Z,31.40
2023-01-26T07:24:51.053Z,38.13
2023-01-26T07:27:18.268Z,33.90
2023-01-26T07:29:46.466Z,38.77
2023-01-26T07:32:13.817Z,46.40
2023-01-26T07:34:41.053Z,37.10
2023-01-26T07:37:08.381Z,33.50
2023-01-26T07:39:35.574Z,35.50
2023-01-26T07:42:02.888Z,31.97
2023-01-26T07:44:41.556Z,30.00
2023-01-26T07:47:09.171Z,29.10
2023-01-26T07:49:36.328Z,35.70
2023-01-26T07:52:04.863Z,34.03
2023-01-26T07:54:32.316Z,39.00
2023-01-26T07:57:00.271Z,32.00
2023-01-26T07:59:28.045Z,28.27
2023-01-26T08:01:55.286Z,37.97
2023-01-26T08:04:22.456Z,38.67
2023-01-26T08:06:51.875Z,25.93
2023-01-26T08:09:19.172Z,35.37
2023-01-26T08:11:46.384Z,36.03
2023-01-26T08:14:13.727Z,31.47
2023-01-26T08:16:41.031Z,32.30
2023-01-26T08:19:08.415Z,32.70
2023-01-26T08:21:36.393Z,27.63
2023-01-26T08:24:03.847Z,33.27
2023-01-26T08:26:32.087Z,25.37
2023-01-26T08:28:59.327Z,34.17
2023-01-26T08:31:28.140Z,35.77
2023-01-26T08:33:55.870Z,24.67
2023-01-26T08:36:23.469Z,31.20
2023-01-26T08:38:51.792Z,30.30
2023-01-26T08:41:19.087Z,32.07
2023-01-26T08:43:46.757Z,39.37
2023-01-26T08:46:14.778Z,36.63
2023-01-26T08:48:41.990Z,32.47
2023-01-26T08:51:09.900Z,29.33
2023-01-26T08:53:37.563Z,28.10
2023-01-26T08:56:07.440Z,32.97
2023-01-26T08:58:35.717Z,35.40
2023-01-26T09:01:07.224Z,24.23
2023-01-26T09:03:34.463Z,32.13
2023-01-26T09:06:04.308Z,27.87
2023-01-26T09:08:31.944Z,24.80
2023-01-26T09:11:00.056Z,28.53
2023-01-26T09:13:27.411Z,22.50
2023-01-26T09:15:54.637Z,26.03
2023-01-26T09:18:21.864Z,31.73
2023-01-26T09:20:51.047Z,21.77
2023-01-26T09:23:18.760Z,20.47
2023-01-26T09:25:46.268Z,23.17
2023-01-26T09:28:13.631Z,21.67
2023-01-26T09:30:40.889Z,26.30
2023-01-26T09:33:08.396Z,19.47
2023-01-26T09:35:36.125Z,26.03
2023-01-26T09:38:03.273Z,21.90
2023-01-26T09:40:51.731Z,20.57
2023-01-26T09:43:38.320Z,20.37
2023-01-26T09:46:16.785Z,25.00
2023-01-26T09:48:53.841Z,18.37
2023-01-26T09:51:32.104Z,15.57
2023-01-26T09:54:12.296Z,17.10
2023-01-26T09:56:39.917Z,22.33
2023-01-26T09:59:36.561Z,25.83
2023-01-26T10:02:34.608Z,17.40
2023-01-26T10:05:08.078Z,23.93
2023-01-26T10:07:38.169Z,16.83
2023-01-26T10:10:05.868Z,26.07
2023-01-26T10:12:36.217Z,22.77
2023-01-26T10:15:26.493Z,19.57
2023-01-26T10:17:56.888Z,17.97
2023-01-26T10:20:36.751Z,20.60
2023-01-26T10:23:14.179Z,20.30
2023-01-26T10:25:42.495Z,21.27
2023-01-26T10:28:18.369Z,22.43
2023-01-26T10:30:47.478Z,22.63
2023-01-26T10:33:36.674Z,25.07
2023-01-26T10:36:07.164Z,19.43
2023-01-26T10:38:37.158Z,20.83
2023-01-26T10:41:14.162Z,31.83
2023-01-26T10:43:43.428Z,22.57
2023-01-26T10:46:24.922Z,26.50
2023-01-26T10:48:57.495Z,30.07
2023-01-26T10:51:31.155Z,29.30
2023-01-26T10:54:20.081Z,31.90
2023-01-26T10:56:58.154Z,49.97
2023-01-26T10:59:34.193Z,23.57
2023-01-26T11:02:19.357Z,33.63
2023-01-26T11:05:07.770Z,29.37
2023-01-26T11:07:36.233Z,39.20
2023-01-26T11:10:24.680Z,41.77
2023-01-26T11:13:06.389Z,31.10
2023-01-26T11:15:38.598Z,25.47
2023-01-26T11:18:27.030Z,39.53
2023-01-26T11:21:11.811Z,45.10
2023-01-26T11:23:51.454Z,46.80
2023-01-26T11:26:24.622Z,47.37
2023-01-26T11:29:29.272Z,33.20
2023-01-26T11:32:05.387Z,36.87
2023-01-26T11:35:10.323Z,45.93
2023-01-26T11:37:53.029Z,63.47
2023-01-26T11:40:24.759Z,54.37
2023-01-26T11:43:23.287Z,46.97
2023-01-26T11:46:03.914Z,30.33
2023-01-26T11:49:14.425Z,27.20
2023-01-26T11:51:50.125Z,74.87
2023-01-26T11:54:29.131Z,47.10
2023-01-26T11:57:20.768Z,50.17
2023-01-26T12:00:09.416Z,33.63
2023-01-26T12:02:45.400Z,58.00
2023-01-26T12:05:20.906Z,59.53
2023-01-26T12:08:11.183Z,77.57
2023-01-26T12:10:50.855Z,23.23
2023-01-26T12:13:36.539Z,44.93
2023-01-26T12:16:13.623Z,42.83
2023-01-26T12:19:05.396Z,69.03
2023-01-26T12:21:40.860Z,58.03
2023-01-26T12:24:39.169Z,76.37
2023-01-26T12:27:05.462Z,64.23
2023-01-26T12:30:02.072Z,77.83
2023-01-26T12:32:29.368Z,42.77
2023-01-26T12:34:57.848Z,80.50
2023-01-26T12:37:57.616Z,79.40
2023-01-26T12:40:36.765Z,42.43
2023-01-26T12:43:32.601Z,73.60
2023-01-26T12:46:03.179Z,73.77
2023-01-26T12:48:45.487Z,64.20
2023-01-26T12:51:22.714Z,68.37
2023-01-26T12:54:03.569Z,67.90
2023-01-26T12:56:36.903Z,44.13
2023-01-26T12:59:39.252Z,51.87
2023-01-26T13:02:27.772Z,45.93
2023-01-26T13:05:00.456Z,44.20
2023-01-26T13:07:33.654Z,48.27
2023-01-26T13:10:20.239Z,48.27
2023-01-26T13:13:00.509Z,45.57
2023-01-26T13:15:32.261Z,71.57
2023-01-26T13:18:02.488Z,53.57
2023-01-26T13:20:47.786Z,42.60
2023-01-26T13:23:38.994Z,31.37
2023-01-26T13:26:32.623Z,49.07
2023-01-26T13:29:24.356Z,51.37
2023-01-26T13:31:52.729Z,45.60
2023-01-26T13:34:26.110Z,44.37
2023-01-26T13:36:59.290Z,42.73
2023-01-26T13:39:31.724Z,36.20
2023-01-26T13:41:58.916Z,35.57
2023-01-26T13:44:42.585Z,35.93
2023-01-26T13:47:19.404Z,40.80
2023-01-26T13:49:50.363Z,28.90
2023-01-26T13:52:20.604Z,26.13
2023-01-26T13:54:49.333Z,42.83
2023-01-26T13:57:30.441Z,32.33
2023-01-26T14:00:00.373Z,36.03
2023-01-26T14:02:32.998Z,36.80
2023-01-26T14:05:01.631Z,32.20
2023-01-26T14:07:38.046Z,39.00
2023-01-26T14:10:07.356Z,35.10
2023-01-26T14:12:48.393Z,33.03
2023-01-26T14:15:29.921Z,33.13
2023-01-26T14:18:00.148Z,36.03
2023-01-26T14:20:31.236Z,29.50
2023-01-26T14:23:06.999Z,28.03
2023-01-26T14:25:34.559Z,33.00
2023-01-26T14:28:01.867Z,33.77
2023-01-26T14:30:34.403Z,30.60
2023-01-26T14:33:16.985Z,28.00
2023-01-26T14:35:56.803Z,32.03
2023-01-26T14:38:24.090Z,24.00
2023-01-26T14:40:56.863Z,29.80
2023-01-26T14:43:25.507Z,25.33
2023-01-26T14:46:07.772Z,22.00
2023-01-26T14:48:52.640Z,26.53
2023-01-26T14:51:25.180Z,26.07
2023-01-26T14:54:08.154Z,22.90
2023-01-26T14:56:38.528Z,24.40
2023-01-26T14:59:09.345Z,25.93
2023-01-26T15:01:36.714Z,21.00
2023-01-26T15:04:16.924Z,23.00
2023-01-26T15:06:44.186Z,21.90
2023-01-26T15:09:28.277Z,31.93
2023-01-26T15:12:18.341Z,27.50
2023-01-26T15:14:45.473Z,19.33
2023-01-26T15:17:39.876Z,21.83
2023-01-26T15:20:16.107Z,22.07
2023-01-26T15:22:52.785Z,23.07
2023-01-26T15:25:28.817Z,23.70
2023-01-26T15:27:59.135Z,22.40
2023-01-26T15:30:32.842Z,26.10
2023-01-26T15:33:00.762Z,20.70
2023-01-26T15:35:33.217Z,22.53
2023-01-26T15:38:06.347Z,18.33
2023-01-26T15:40:33.559Z,20.80
2023-01-26T15:43:12.344Z,23.80
2023-01-26T15:45:50.016Z,20.50
2023-01-26T15:48:17.548Z,23.90
2023-01-26T15:50:46.083Z,26.93
2023-01-26T15:53:14.799Z,20.60
2023-01-26T15:55:44.404Z,20.90
2023-01-26T15:58:11.658Z,23.17
2023-01-26T16:00:39.056Z,19.77
2023-01-26T16:03:13.591Z,19.63
2023-01-26T16:05:40.777Z,21.53
2023-01-26T16:08:09.903Z,23.67
2023-01-26T16:10:38.452Z,24.67
2023-01-26T16:13:12.703Z,22.83
2023-01-26T16:15:46.226Z,22.37
2023-01-26T16:18:13.561Z,15.87
2023-01-26T16:20:43.238Z,20.83
2023-01-26T16:23:27.289Z,19.50
2023-01-26T16:25:55.406Z,20.63
2023-01-26T16:28:22.847Z,22.60
2023-01-26T16:30:51.206Z,22.47
2023-01-26T16:33:24.875Z,12.50
2023-01-26T16:35:52.252Z,19.07
2023-01-26T16:38:19.430Z,18.10
2023-01-26T16:40:48.247Z,21.57
2023-01-26T16:43:23.658Z,16.27
2023-01-26T16:45:52.380Z,16.20
2023-01-26T16:48:20.589Z,20.27
2023-01-26T16:50:51.324Z,16.63
2023-01-26T16:53:35.989Z,15.87
2023-01-26T16:56:04.085Z,17.97
2023-01-26T16:58:33.079Z,14.47
2023-01-26T17:01:01.174Z,12.30
2023-01-26T17:03:29.468Z,15.67
2023-01-26T17:05:57.193Z,14.40
2023-01-26T17:08:24.483Z,14.07
2023-01-26T17:11:02.198Z,18.47
2023-01-26T17:13:31.573Z,11.00
2023-01-26T17:15:59.232Z,16.80
2023-01-26T17:18:26.597Z,20.07
2023-01-26T17:20:53.846Z,20.60
2023-01-26T17:23:21.021Z,27.57
2023-01-26T17:25:48.372Z,24.00
2023-01-26T17:28:15.964Z,19.93
2023-01-26T17:30:43.735Z,16.37
2023-01-26T17:33:10.915Z,15.83
2023-01-26T17:35:38.688Z,18.50
2023-01-26T17:38:05.833Z,16.37
2023-01-26T17:40:33.030Z,16.00
2023-01-26T17:43:00.458Z,19.13
2023-01-26T17:45:28.315Z,19.20
2023-01-26T17:47:55.628Z,15.43
2023-01-26T17:50:22.820Z,15.30
2023-01-26T17:52:50.016Z,20.53
2023-01-26T17:55:17.740Z,13.27
2023-01-26T17:57:44.944Z,16.67
2023-01-26T18:00:12.868Z,17.00
2023-01-26T18:02:40.222Z,15.50
2023-01-26T18:05:08.762Z,11.27
2023-01-26T18:07:37.728Z,12.93
2023-01-26T18:10:05.386Z,15.17
2023-01-26T18:12:33.189Z,14.00
2023-01-26T18:15:00.507Z,17.30
2023-01-26T18:17:27.668Z,14.10
2023-01-26T18:19:54.850Z,11.70
2023-01-26T18:22:22.062Z,15.50
2023-01-26T18:24:49.631Z,12.50
2023-01-26T18:27:16.967Z,15.63
2023-01-26T18:29:44.138Z,12.43
2023-01-26T18:32:11.334Z,14.97
2023-01-26T18:34:41.662Z,11.77
2023-01-26T18:37:09.645Z,12.73
2023-01-26T18:39:37.375Z,12.67
2023-01-26T18:42:05.410Z,11.10
2023-01-26T18:44:32.634Z,11.67
2023-01-26T18:46:59.823Z,12.73
2023-01-26T18:49:27.142Z,12.27
2023-01-26T18:51:55.541Z,11.90
2023-01-26T18:54:22.817Z,12.90
2023-01-26T18:56:50.044Z,12.37
2023-01-26T18:59:17.700Z,12.30
2023-01-26T19:01:44.875Z,13.40
2023-01-26T19:04:12.947Z,12.70
2023-01-26T19:06:40.111Z,11.87
2023-01-26T19:09:08.458Z,11.97
2023-01-26T19:11:38.173Z,13.13
2023-01-26T19:14:07.281Z,13.70
2023-01-26T19:16:35.748Z,11.10
2023-01-26T19:19:03.458Z,11.90
2023-01-26T19:21:33.739Z,18.33
2023-01-26T19:24:06.430Z,13.83
2023-01-26T19:26:34.071Z,16.03
2023-01-26T19:29:01.436Z,9.37
2023-01-26T19:31:28.940Z,9.40
2023-01-26T19:34:02.330Z,13.37
2023-01-26T19:36:32.189Z,11.00
2023-01-26T19:39:00.504Z,15.17
2023-01-26T19:41:27.774Z,11.17
2023-01-26T19:43:55.410Z,12.17
2023-01-26T19:46:22.885Z,12.90
2023-01-26T19:48:50.694Z,12.43
2023-01-26T19:51:21.313Z,17.03
2023-01-26T19:53:50.562Z,12.30
2023-01-26T19:56:20.963Z,10.80
2023-01-26T19:59:00.315Z,12.60
2023-01-26T20:01:31.343Z,15.10
2023-01-26T20:04:04.664Z,12.60
2023-01-26T20:06:34.655Z,13.40
2023-01-26T20:09:05.981Z,14.90
2023-01-26T20:11:34.240Z,16.53
2023-01-26T20:14:05.659Z,12.80
2023-01-26T20:16:34.201Z,13.63
2023-01-26T20:19:01.823Z,12.60
2023-01-26T20:21:29.981Z,12.30
2023-01-26T20:24:05.286Z,11.73
2023-01-26T20:26:34.233Z,18.63
2023-01-26T20:29:01.530Z,12.53
2023-01-26T20:31:28.849Z,16.60
2023-01-26T20:33:56.478Z,19.83
2023-01-26T20:36:27.018Z,18.73
2023-01-26T20:38:54.545Z,12.70
2023-01-26T20:41:27.333Z,15.30
2023-01-26T20:44:00.270Z,9.30
2023-01-26T20:46:34.549Z,11.57
2023-01-26T20:49:02.265Z,13.10
2023-01-26T20:51:33.852Z,12.60
2023-01-26T20:54:02.034Z,10.60
2023-01-26T20:56:30.824Z,12.30
2023-01-26T20:58:58.243Z,13.50
2023-01-26T21:01:26.450Z,13.57
2023-01-26T21:03:54.479Z,13.33
2023-01-26T21:06:23.965Z,11.07
2023-01-26T21:08:54.100Z,10.83
2023-01-26T21:11:23.931Z,11.93
2023-01-26T21:13:51.988Z,13.20
2023-01-26T21:16:19.884Z,12.23
2023-01-26T21:18:47.938Z,11.63
2023-01-26T21:21:17.492Z,14.80
2023-01-26T21:23:45.444Z,16.90
2023-01-26T21:26:15.340Z,13.47
2023-01-26T21:28:42.723Z,15.80
2023-01-26T21:31:13.795Z,13.10
2023-01-26T21:33:43.350Z,11.67
2023-01-26T21:36:14.797Z,15.93
2023-01-26T21:38:44.864Z,14.33
2023-01-26T21:41:33.400Z,12.10
2023-01-26T21:44:10.225Z,15.40
2023-01-26T21:46:38.635Z,10.93
2023-01-26T21:49:06.460Z,10.93
2023-01-26T21:51:53.583Z,12.60
2023-01-26T21:54:20.833Z,12.40
2023-01-26T21:56:48.080Z,10.43
2023-01-26T21:59:17.415Z,12.90
2023-01-26T22:01:49.847Z,13.60
2023-01-26T22:04:22.667Z,13.70
2023-01-26T22:06:52.168Z,13.10
2023-01-26T22:09:21.157Z,13.53
2023-01-26T22:11:50.369Z,11.47
2023-01-26T22:14:21.929Z,13.90
2023-01-26T22:16:49.480Z,11.97
2023-01-26T22:19:16.825Z,11.73
2023-01-26T22:21:44.643Z,10.10
2023-01-26T22:24:15.338Z,13.20
2023-01-26T22:26:42.556Z,9.13
2023-01-26T22:29:12.691Z,11.87
2023-01-26T22:31:39.937Z,7.43
2023-01-26T22:34:07.338Z,7.07
2023-01-26T22:36:34.531Z,8.07
2023-01-26T22:39:01.812Z,7.63
2023-01-26T22:41:34.316Z,7.83
2023-01-26T22:44:01.778Z,7.73
2023-01-26T22:46:31.029Z,7.30
2023-01-26T22:48:59.357Z,8.13
2023-01-26T22:51:30.078Z,9.07
2023-01-26T22:53:58.460Z,6.83
2023-01-26T22:56:26.466Z,6.97
2023-01-26T22:58:59.023Z,6.33
2023-01-26T23:01:31.863Z,6.80
2023-01-26T23:04:01.043Z,7.80
2023-01-26T23:06:29.089Z,7.77
2023-01-26T23:08:58.140Z,7.13
2023-01-26T23:11:27.780Z,4.10
2023-01-26T23:13:56.581Z,5.20
2023-01-26T23:16:24.963Z,5.43
2023-01-26T23:18:53.874Z,5.63
2023-01-26T23:21:21.207Z,3.40
2023-01-26T23:23:48.590Z,5.63
2023-01-26T23:26:16.431Z,3.30
2023-01-26T23:28:44.711Z,4.40
2023-01-26T23:31:13.743Z,3.00
2023-01-26T23:33:41.522Z,3.67
2023-01-26T23:36:11.460Z,3.00
2023-01-26T23:38:38.986Z,3.20
2023-01-26T23:41:08.341Z,2.57
2023-01-26T23:43:35.948Z,3.70
2023-01-26T23:46:04.900Z,3.00
2023-01-26T23:48:32.126Z,2.70
2023-01-26T23:51:02.573Z,2.83
2023-01-26T23:53:30.791Z,2.70
2023-01-26T23:56:00.414Z,2.40
2023-01-26T23:58:27.601Z,2.77
